Archival Weather

Salzburg

Salzburg, Austria (LOWS)

Report from: Friday, May 26, 2023 4:50 PM CEST
Current time: Monday, June 17, 2024 11:40 AM CEST

Current weather – Weather history – Daily summaries
Weather forecast

Temperature21.0°C (69.8°F)
Dew point11.0°C (51.8°F)
Winds 8 kts (4.1 m/s, 9.2 mph) North-Northeast (30°)
Visibility6.2 mi. (10 km)
Clouds Few clouds 5,000 ft. (1,524 m)
Ceiling: Broken clouds 6,500 ft. (1,981 m)
Altimeter30.18 in.Hg (1022 mB)
Relative humidity53 %
Density altitude593 ft. (181 m)
Remarks No significant changes expected in the next two hours
Flight conditions Visual Meteorological Conditions
Raw dataLOWS 261450Z 03008KT 9999 FEW050 BKN065 21/11 Q1022 NOSIG
An error has occurred. This application may no longer respond until reloaded. Reload 🗙